sensor_id;sensor_type;location;lat;lon;timestamp;P1;durP1;ratioP1;P2;durP2;ratioP2
55465;SDS011;41329;41.594;23.810;2022-08-26T00:00:45;28.90;;;4.30;;
55465;SDS011;41329;41.594;23.810;2022-08-26T00:03:12;14.48;;;3.90;;
55465;SDS011;41329;41.594;23.810;2022-08-26T00:05:40;13.68;;;4.10;;
55465;SDS011;41329;41.594;23.810;2022-08-26T00:08:06;15.90;;;3.50;;
55465;SDS011;41329;41.594;23.810;2022-08-26T00:10:33;19.15;;;3.80;;
55465;SDS011;41329;41.594;23.810;2022-08-26T00:12:58;14.75;;;3.22;;
55465;SDS011;41329;41.594;23.810;2022-08-26T00:15:24;23.92;;;4.15;;
55465;SDS011;41329;41.594;23.810;2022-08-26T00:17:50;18.40;;;3.55;;
55465;SDS011;41329;41.594;23.810;2022-08-26T00:20:18;19.48;;;4.03;;
55465;SDS011;41329;41.594;23.810;2022-08-26T00:22:47;18.40;;;3.88;;
55465;SDS011;41329;41.594;23.810;2022-08-26T00:25:12;13.75;;;3.75;;
55465;SDS011;41329;41.594;23.810;2022-08-26T00:27:38;18.02;;;3.63;;
55465;SDS011;41329;41.594;23.810;2022-08-26T00:30:06;21.63;;;3.42;;
55465;SDS011;41329;41.594;23.810;2022-08-26T00:32:34;14.93;;;4.00;;
55465;SDS011;41329;41.594;23.810;2022-08-26T00:35:00;17.02;;;4.50;;
55465;SDS011;41329;41.594;23.810;2022-08-26T00:37:26;11.20;;;3.75;;
55465;SDS011;41329;41.594;23.810;2022-08-26T00:39:51;27.65;;;3.92;;
55465;SDS011;41329;41.594;23.810;2022-08-26T00:42:18;15.38;;;3.58;;
55465;SDS011;41329;41.594;23.810;2022-08-26T00:44:44;17.48;;;4.15;;
55465;SDS011;41329;41.594;23.810;2022-08-26T00:47:12;16.45;;;4.00;;
55465;SDS011;41329;41.594;23.810;2022-08-26T00:49:48;16.50;;;3.63;;
55465;SDS011;41329;41.594;23.810;2022-08-26T00:52:16;24.80;;;4.25;;
55465;SDS011;41329;41.594;23.810;2022-08-26T00:54:48;18.40;;;4.18;;
55465;SDS011;41329;41.594;23.810;2022-08-26T00:57:22;24.42;;;3.50;;
55465;SDS011;41329;41.594;23.810;2022-08-26T00:59:48;10.73;;;3.13;;
55465;SDS011;41329;41.594;23.810;2022-08-26T01:02:18;20.85;;;3.95;;
55465;SDS011;41329;41.594;23.810;2022-08-26T01:04:43;24.08;;;4.65;;
55465;SDS011;41329;41.594;23.810;2022-08-26T01:07:09;14.35;;;3.22;;
55465;SDS011;41329;41.594;23.810;2022-08-26T01:09:35;18.98;;;3.88;;
55465;SDS011;41329;41.594;23.810;2022-08-26T01:12:01;19.50;;;3.95;;
55465;SDS011;41329;41.594;23.810;2022-08-26T01:14:30;17.70;;;4.70;;
55465;SDS011;41329;41.594;23.810;2022-08-26T01:17:02;19.42;;;3.67;;
55465;SDS011;41329;41.594;23.810;2022-08-26T01:19:37;17.58;;;3.75;;
55465;SDS011;41329;41.594;23.810;2022-08-26T01:22:09;20.70;;;4.38;;
55465;SDS011;41329;41.594;23.810;2022-08-26T01:24:38;9.10;;;3.28;;
55465;SDS011;41329;41.594;23.810;2022-08-26T01:27:06;10.63;;;3.42;;
55465;SDS011;41329;41.594;23.810;2022-08-26T01:29:35;17.73;;;4.33;;
55465;SDS011;41329;41.594;23.810;2022-08-26T01:32:04;17.15;;;3.83;;
55465;SDS011;41329;41.594;23.810;2022-08-26T01:34:34;32.45;;;4.30;;
55465;SDS011;41329;41.594;23.810;2022-08-26T01:37:13;20.08;;;4.00;;
55465;SDS011;41329;41.594;23.810;2022-08-26T01:39:41;18.17;;;4.05;;
55465;SDS011;41329;41.594;23.810;2022-08-26T01:42:09;13.27;;;3.63;;
55465;SDS011;41329;41.594;23.810;2022-08-26T01:44:40;22.48;;;4.43;;
55465;SDS011;41329;41.594;23.810;2022-08-26T01:47:09;17.77;;;3.90;;
55465;SDS011;41329;41.594;23.810;2022-08-26T01:49:36;22.45;;;4.13;;
55465;SDS011;41329;41.594;23.810;2022-08-26T01:52:02;15.75;;;4.30;;
55465;SDS011;41329;41.594;23.810;2022-08-26T01:54:29;20.23;;;3.85;;
55465;SDS011;41329;41.594;23.810;2022-08-26T01:56:55;21.85;;;4.00;;
55465;SDS011;41329;41.594;23.810;2022-08-26T01:59:20;19.60;;;4.15;;
55465;SDS011;41329;41.594;23.810;2022-08-26T02:01:48;27.75;;;4.70;;
55465;SDS011;41329;41.594;23.810;2022-08-26T02:04:24;21.80;;;4.47;;
55465;SDS011;41329;41.594;23.810;2022-08-26T02:06:54;30.05;;;4.25;;
55465;SDS011;41329;41.594;23.810;2022-08-26T02:09:21;26.05;;;4.57;;
55465;SDS011;41329;41.594;23.810;2022-08-26T02:11:49;18.52;;;4.43;;
55465;SDS011;41329;41.594;23.810;2022-08-26T02:14:16;22.38;;;4.95;;
55465;SDS011;41329;41.594;23.810;2022-08-26T02:19:14;14.57;;;3.67;;
55465;SDS011;41329;41.594;23.810;2022-08-26T02:21:43;15.77;;;4.70;;
55465;SDS011;41329;41.594;23.810;2022-08-26T02:24:12;28.42;;;4.75;;
55465;SDS011;41329;41.594;23.810;2022-08-26T02:26:39;21.13;;;4.97;;
55465;SDS011;41329;41.594;23.810;2022-08-26T02:29:51;28.02;;;4.57;;
55465;SDS011;41329;41.594;23.810;2022-08-26T02:32:06;13.43;;;6.15;;
55465;SDS011;41329;41.594;23.810;2022-08-26T02:34:32;28.60;;;6.72;;
55465;SDS011;41329;41.594;23.810;2022-08-26T02:36:59;15.00;;;6.10;;
55465;SDS011;41329;41.594;23.810;2022-08-26T02:39:29;19.83;;;5.60;;
55465;SDS011;41329;41.594;23.810;2022-08-26T02:41:55;19.27;;;6.20;;
55465;SDS011;41329;41.594;23.810;2022-08-26T02:44:23;15.68;;;6.32;;
55465;SDS011;41329;41.594;23.810;2022-08-26T02:46:49;23.85;;;6.78;;
55465;SDS011;41329;41.594;23.810;2022-08-26T02:49:16;23.60;;;5.95;;
55465;SDS011;41329;41.594;23.810;2022-08-26T02:51:41;18.33;;;5.85;;
55465;SDS011;41329;41.594;23.810;2022-08-26T02:54:07;18.67;;;5.97;;
55465;SDS011;41329;41.594;23.810;2022-08-26T02:56:33;27.85;;;5.82;;
55465;SDS011;41329;41.594;23.810;2022-08-26T02:58:59;20.77;;;5.10;;
55465;SDS011;41329;41.594;23.810;2022-08-26T03:01:25;13.25;;;4.70;;
55465;SDS011;41329;41.594;23.810;2022-08-26T03:03:54;18.65;;;6.07;;
55465;SDS011;41329;41.594;23.810;2022-08-26T03:06:19;26.70;;;5.50;;
55465;SDS011;41329;41.594;23.810;2022-08-26T03:08:45;15.70;;;5.22;;
55465;SDS011;41329;41.594;23.810;2022-08-26T03:11:11;19.98;;;5.95;;
55465;SDS011;41329;41.594;23.810;2022-08-26T03:13:37;15.13;;;5.40;;
55465;SDS011;41329;41.594;23.810;2022-08-26T03:16:03;16.70;;;5.60;;
55465;SDS011;41329;41.594;23.810;2022-08-26T03:18:29;16.90;;;5.35;;
55465;SDS011;41329;41.594;23.810;2022-08-26T03:20:55;23.88;;;5.88;;
55465;SDS011;41329;41.594;23.810;2022-08-26T03:23:20;20.67;;;5.40;;
55465;SDS011;41329;41.594;23.810;2022-08-26T03:25:52;21.98;;;5.45;;
55465;SDS011;41329;41.594;23.810;2022-08-26T03:28:18;25.77;;;5.15;;
55465;SDS011;41329;41.594;23.810;2022-08-26T03:30:44;28.63;;;4.60;;
55465;SDS011;41329;41.594;23.810;2022-08-26T03:33:10;32.30;;;4.65;;
55465;SDS011;41329;41.594;23.810;2022-08-26T03:35:37;14.48;;;4.28;;
55465;SDS011;41329;41.594;23.810;2022-08-26T03:38:04;22.50;;;4.05;;
55465;SDS011;41329;41.594;23.810;2022-08-26T03:40:32;9.98;;;4.32;;
55465;SDS011;41329;41.594;23.810;2022-08-26T03:42:59;19.67;;;4.28;;
55465;SDS011;41329;41.594;23.810;2022-08-26T03:45:25;18.80;;;4.72;;
55465;SDS011;41329;41.594;23.810;2022-08-26T03:47:51;19.65;;;4.85;;
55465;SDS011;41329;41.594;23.810;2022-08-26T03:50:18;19.10;;;4.78;;
55465;SDS011;41329;41.594;23.810;2022-08-26T03:52:46;21.52;;;4.90;;
55465;SDS011;41329;41.594;23.810;2022-08-26T03:55:12;22.40;;;3.90;;
55465;SDS011;41329;41.594;23.810;2022-08-26T03:57:39;26.73;;;3.70;;
55465;SDS011;41329;41.594;23.810;2022-08-26T04:00:05;24.77;;;4.07;;
55465;SDS011;41329;41.594;23.810;2022-08-26T04:02:33;16.40;;;4.05;;
55465;SDS011;41329;41.594;23.810;2022-08-26T04:04:58;27.98;;;4.75;;
55465;SDS011;41329;41.594;23.810;2022-08-26T04:07:24;13.20;;;4.68;;
55465;SDS011;41329;41.594;23.810;2022-08-26T04:09:53;22.67;;;4.97;;
55465;SDS011;41329;41.594;23.810;2022-08-26T04:12:22;22.75;;;5.00;;
55465;SDS011;41329;41.594;23.810;2022-08-26T04:14:49;14.25;;;4.53;;
55465;SDS011;41329;41.594;23.810;2022-08-26T04:17:16;15.70;;;4.32;;
55465;SDS011;41329;41.594;23.810;2022-08-26T04:19:42;16.88;;;3.75;;
55465;SDS011;41329;41.594;23.810;2022-08-26T04:22:07;26.27;;;4.65;;
55465;SDS011;41329;41.594;23.810;2022-08-26T04:24:33;16.77;;;4.72;;
55465;SDS011;41329;41.594;23.810;2022-08-26T04:26:59;21.58;;;4.28;;
55465;SDS011;41329;41.594;23.810;2022-08-26T04:29:27;19.33;;;4.30;;
55465;SDS011;41329;41.594;23.810;2022-08-26T04:31:54;28.95;;;5.00;;
55465;SDS011;41329;41.594;23.810;2022-08-26T04:34:20;11.05;;;3.88;;
55465;SDS011;41329;41.594;23.810;2022-08-26T04:36:47;19.85;;;4.18;;
55465;SDS011;41329;41.594;23.810;2022-08-26T04:39:12;30.48;;;4.55;;
55465;SDS011;41329;41.594;23.810;2022-08-26T04:41:41;19.20;;;4.97;;
55465;SDS011;41329;41.594;23.810;2022-08-26T04:44:10;27.20;;;4.20;;
55465;SDS011;41329;41.594;23.810;2022-08-26T04:46:36;16.00;;;4.40;;
55465;SDS011;41329;41.594;23.810;2022-08-26T04:49:02;18.55;;;4.53;;
55465;SDS011;41329;41.594;23.810;2022-08-26T04:51:29;16.02;;;4.70;;
55465;SDS011;41329;41.594;23.810;2022-08-26T04:53:55;15.40;;;5.85;;
55465;SDS011;41329;41.594;23.810;2022-08-26T04:56:23;21.13;;;4.85;;
55465;SDS011;41329;41.594;23.810;2022-08-26T04:58:49;24.95;;;5.57;;
55465;SDS011;41329;41.594;23.810;2022-08-26T05:01:15;14.30;;;5.60;;
55465;SDS011;41329;41.594;23.810;2022-08-26T05:03:40;17.88;;;4.70;;
55465;SDS011;41329;41.594;23.810;2022-08-26T05:06:06;13.57;;;4.50;;
55465;SDS011;41329;41.594;23.810;2022-08-26T05:08:32;16.23;;;4.43;;
55465;SDS011;41329;41.594;23.810;2022-08-26T05:10:57;23.00;;;5.53;;
55465;SDS011;41329;41.594;23.810;2022-08-26T05:13:24;13.15;;;4.28;;
55465;SDS011;41329;41.594;23.810;2022-08-26T05:15:51;20.63;;;5.45;;
55465;SDS011;41329;41.594;23.810;2022-08-26T05:18:18;19.38;;;4.32;;
55465;SDS011;41329;41.594;23.810;2022-08-26T05:20:49;21.55;;;4.95;;
55465;SDS011;41329;41.594;23.810;2022-08-26T05:23:17;17.67;;;4.63;;
55465;SDS011;41329;41.594;23.810;2022-08-26T05:25:46;13.00;;;3.95;;
55465;SDS011;41329;41.594;23.810;2022-08-26T05:28:13;17.70;;;5.03;;
55465;SDS011;41329;41.594;23.810;2022-08-26T05:30:41;15.60;;;4.10;;
55465;SDS011;41329;41.594;23.810;2022-08-26T05:33:07;22.67;;;4.68;;
55465;SDS011;41329;41.594;23.810;2022-08-26T05:35:34;19.00;;;4.60;;
55465;SDS011;41329;41.594;23.810;2022-08-26T05:38:03;26.23;;;4.43;;
55465;SDS011;41329;41.594;23.810;2022-08-26T05:40:33;9.98;;;3.70;;
55465;SDS011;41329;41.594;23.810;2022-08-26T05:43:00;12.00;;;4.50;;
55465;SDS011;41329;41.594;23.810;2022-08-26T05:45:26;23.95;;;4.43;;
55465;SDS011;41329;41.594;23.810;2022-08-26T05:47:52;25.63;;;4.80;;
55465;SDS011;41329;41.594;23.810;2022-08-26T05:50:18;21.30;;;5.07;;
55465;SDS011;41329;41.594;23.810;2022-08-26T05:52:48;17.33;;;4.32;;
55465;SDS011;41329;41.594;23.810;2022-08-26T05:55:14;11.50;;;3.72;;
55465;SDS011;41329;41.594;23.810;2022-08-26T05:57:40;20.50;;;5.10;;
55465;SDS011;41329;41.594;23.810;2022-08-26T06:00:05;15.73;;;4.28;;
55465;SDS011;41329;41.594;23.810;2022-08-26T06:02:31;19.65;;;4.18;;
55465;SDS011;41329;41.594;23.810;2022-08-26T06:04:57;11.02;;;4.22;;
55465;SDS011;41329;41.594;23.810;2022-08-26T06:07:22;15.68;;;4.18;;
55465;SDS011;41329;41.594;23.810;2022-08-26T06:10:10;21.25;;;4.75;;
55465;SDS011;41329;41.594;23.810;2022-08-26T06:12:39;19.40;;;5.03;;
55465;SDS011;41329;41.594;23.810;2022-08-26T06:15:05;14.50;;;4.28;;
55465;SDS011;41329;41.594;23.810;2022-08-26T06:17:31;14.10;;;4.38;;
55465;SDS011;41329;41.594;23.810;2022-08-26T06:19:56;11.63;;;4.18;;
55465;SDS011;41329;41.594;23.810;2022-08-26T06:22:22;16.83;;;4.57;;
55465;SDS011;41329;41.594;23.810;2022-08-26T06:25:06;22.23;;;4.13;;
55465;SDS011;41329;41.594;23.810;2022-08-26T06:27:51;16.42;;;4.28;;
55465;SDS011;41329;41.594;23.810;2022-08-26T06:30:16;27.77;;;4.55;;
55465;SDS011;41329;41.594;23.810;2022-08-26T06:32:42;17.13;;;4.00;;
55465;SDS011;41329;41.594;23.810;2022-08-26T06:35:07;16.45;;;5.07;;
55465;SDS011;41329;41.594;23.810;2022-08-26T06:37:33;30.45;;;5.53;;
55465;SDS011;41329;41.594;23.810;2022-08-26T06:39:58;16.00;;;4.53;;
55465;SDS011;41329;41.594;23.810;2022-08-26T06:42:24;16.50;;;4.22;;
55465;SDS011;41329;41.594;23.810;2022-08-26T06:44:49;8.07;;;3.53;;
55465;SDS011;41329;41.594;23.810;2022-08-26T06:47:15;13.02;;;3.50;;
55465;SDS011;41329;41.594;23.810;2022-08-26T06:49:40;16.25;;;4.05;;
55465;SDS011;41329;41.594;23.810;2022-08-26T06:52:06;16.85;;;4.30;;
55465;SDS011;41329;41.594;23.810;2022-08-26T06:54:31;8.43;;;3.55;;
55465;SDS011;41329;41.594;23.810;2022-08-26T06:56:57;20.13;;;3.70;;
55465;SDS011;41329;41.594;23.810;2022-08-26T06:59:23;12.57;;;4.15;;
55465;SDS011;41329;41.594;23.810;2022-08-26T07:01:49;18.92;;;3.83;;
55465;SDS011;41329;41.594;23.810;2022-08-26T07:04:15;16.90;;;3.92;;
55465;SDS011;41329;41.594;23.810;2022-08-26T07:06:44;14.98;;;3.90;;
55465;SDS011;41329;41.594;23.810;2022-08-26T07:09:13;16.55;;;4.03;;
55465;SDS011;41329;41.594;23.810;2022-08-26T07:11:38;17.45;;;4.03;;
55465;SDS011;41329;41.594;23.810;2022-08-26T07:14:05;10.35;;;3.75;;
55465;SDS011;41329;41.594;23.810;2022-08-26T07:16:32;16.55;;;3.78;;
55465;SDS011;41329;41.594;23.810;2022-08-26T07:18:57;13.93;;;5.45;;
55465;SDS011;41329;41.594;23.810;2022-08-26T07:21:23;20.27;;;8.05;;
55465;SDS011;41329;41.594;23.810;2022-08-26T07:23:50;26.52;;;6.47;;
55465;SDS011;41329;41.594;23.810;2022-08-26T07:26:21;28.83;;;7.40;;
55465;SDS011;41329;41.594;23.810;2022-08-26T07:28:49;50.35;;;22.65;;
55465;SDS011;41329;41.594;23.810;2022-08-26T07:31:17;60.80;;;23.30;;
55465;SDS011;41329;41.594;23.810;2022-08-26T07:33:44;40.45;;;17.75;;
55465;SDS011;41329;41.594;23.810;2022-08-26T07:36:10;25.15;;;13.13;;
55465;SDS011;41329;41.594;23.810;2022-08-26T07:38:37;55.35;;;20.13;;
55465;SDS011;41329;41.594;23.810;2022-08-26T07:41:04;36.03;;;19.08;;
55465;SDS011;41329;41.594;23.810;2022-08-26T07:43:30;35.95;;;14.57;;
55465;SDS011;41329;41.594;23.810;2022-08-26T07:45:56;38.15;;;13.73;;
55465;SDS011;41329;41.594;23.810;2022-08-26T07:48:21;34.40;;;10.75;;
55465;SDS011;41329;41.594;23.810;2022-08-26T07:50:47;18.55;;;7.28;;
55465;SDS011;41329;41.594;23.810;2022-08-26T07:53:13;18.88;;;6.10;;
55465;SDS011;41329;41.594;23.810;2022-08-26T07:55:39;13.75;;;5.38;;
55465;SDS011;41329;41.594;23.810;2022-08-26T07:58:05;24.95;;;5.88;;
55465;SDS011;41329;41.594;23.810;2022-08-26T08:00:31;17.33;;;4.63;;
55465;SDS011;41329;41.594;23.810;2022-08-26T08:03:01;15.23;;;4.13;;
55465;SDS011;41329;41.594;23.810;2022-08-26T08:05:28;10.00;;;3.95;;
55465;SDS011;41329;41.594;23.810;2022-08-26T08:07:57;6.88;;;3.65;;
55465;SDS011;41329;41.594;23.810;2022-08-26T08:10:25;10.10;;;3.47;;
55465;SDS011;41329;41.594;23.810;2022-08-26T08:12:53;17.23;;;4.15;;
55465;SDS011;41329;41.594;23.810;2022-08-26T08:15:20;13.02;;;3.83;;
55465;SDS011;41329;41.594;23.810;2022-08-26T08:17:49;22.02;;;5.45;;
55465;SDS011;41329;41.594;23.810;2022-08-26T08:20:15;11.27;;;4.20;;
55465;SDS011;41329;41.594;23.810;2022-08-26T08:22:41;23.33;;;4.07;;
55465;SDS011;41329;41.594;23.810;2022-08-26T08:25:07;28.23;;;4.28;;
55465;SDS011;41329;41.594;23.810;2022-08-26T08:27:33;24.40;;;4.10;;
55465;SDS011;41329;41.594;23.810;2022-08-26T08:30:00;14.15;;;3.75;;
55465;SDS011;41329;41.594;23.810;2022-08-26T08:32:26;13.82;;;4.13;;
55465;SDS011;41329;41.594;23.810;2022-08-26T08:34:53;14.63;;;4.55;;
55465;SDS011;41329;41.594;23.810;2022-08-26T08:37:20;11.82;;;4.18;;
55465;SDS011;41329;41.594;23.810;2022-08-26T08:39:46;12.27;;;4.13;;
55465;SDS011;41329;41.594;23.810;2022-08-26T08:47:56;15.45;;;3.80;;
55465;SDS011;41329;41.594;23.810;2022-08-26T08:50:29;22.55;;;4.40;;
55465;SDS011;41329;41.594;23.810;2022-08-26T08:53:10;17.58;;;5.05;;
55465;SDS011;41329;41.594;23.810;2022-08-26T08:55:50;14.05;;;5.88;;
55465;SDS011;41329;41.594;23.810;2022-08-26T09:06:38;9.25;;;4.95;;
55465;SDS011;41329;41.594;23.810;2022-08-26T09:09:04;18.23;;;4.88;;
55465;SDS011;41329;41.594;23.810;2022-08-26T09:11:32;18.08;;;5.43;;
55465;SDS011;41329;41.594;23.810;2022-08-26T09:13:59;15.43;;;4.95;;
55465;SDS011;41329;41.594;23.810;2022-08-26T09:16:34;12.65;;;4.70;;
55465;SDS011;41329;41.594;23.810;2022-08-26T09:22:08;19.75;;;5.20;;
55465;SDS011;41329;41.594;23.810;2022-08-26T09:24:35;13.70;;;3.83;;
55465;SDS011;41329;41.594;23.810;2022-08-26T09:27:03;14.60;;;4.35;;
55465;SDS011;41329;41.594;23.810;2022-08-26T09:29:30;13.13;;;4.03;;
55465;SDS011;41329;41.594;23.810;2022-08-26T09:32:15;11.95;;;4.57;;
55465;SDS011;41329;41.594;23.810;2022-08-26T09:34:55;12.88;;;3.97;;
55465;SDS011;41329;41.594;23.810;2022-08-26T09:37:33;11.15;;;4.15;;
55465;SDS011;41329;41.594;23.810;2022-08-26T09:42:36;13.38;;;4.35;;
55465;SDS011;41329;41.594;23.810;2022-08-26T09:45:04;14.95;;;3.78;;
55465;SDS011;41329;41.594;23.810;2022-08-26T09:50:18;13.43;;;3.67;;
55465;SDS011;41329;41.594;23.810;2022-08-26T09:55:31;9.85;;;4.07;;
55465;SDS011;41329;41.594;23.810;2022-08-26T09:57:56;15.93;;;3.67;;
55465;SDS011;41329;41.594;23.810;2022-08-26T10:02:57;7.22;;;4.05;;
55465;SDS011;41329;41.594;23.810;2022-08-26T10:05:29;7.43;;;3.67;;
55465;SDS011;41329;41.594;23.810;2022-08-26T10:08:19;15.18;;;4.15;;
55465;SDS011;41329;41.594;23.810;2022-08-26T10:10:54;22.60;;;5.10;;
55465;SDS011;41329;41.594;23.810;2022-08-26T10:18:31;13.35;;;4.35;;
55465;SDS011;41329;41.594;23.810;2022-08-26T10:21:14;8.95;;;5.25;;
55465;SDS011;41329;41.594;23.810;2022-08-26T10:23:46;14.77;;;5.38;;
55465;SDS011;41329;41.594;23.810;2022-08-26T10:26:38;15.50;;;5.30;;
55465;SDS011;41329;41.594;23.810;2022-08-26T10:31:51;16.10;;;5.60;;
55465;SDS011;41329;41.594;23.810;2022-08-26T10:34:22;10.50;;;5.15;;
55465;SDS011;41329;41.594;23.810;2022-08-26T10:36:53;10.23;;;4.82;;
55465;SDS011;41329;41.594;23.810;2022-08-26T10:39:25;9.52;;;4.32;;
55465;SDS011;41329;41.594;23.810;2022-08-26T10:42:01;11.43;;;4.93;;
55465;SDS011;41329;41.594;23.810;2022-08-26T10:44:29;11.88;;;4.65;;
55465;SDS011;41329;41.594;23.810;2022-08-26T10:47:00;13.35;;;4.90;;
55465;SDS011;41329;41.594;23.810;2022-08-26T10:49:33;7.47;;;4.53;;
55465;SDS011;41329;41.594;23.810;2022-08-26T10:52:05;11.90;;;4.65;;
55465;SDS011;41329;41.594;23.810;2022-08-26T10:57:49;11.60;;;4.47;;
55465;SDS011;41329;41.594;23.810;2022-08-26T11:00:46;10.93;;;4.05;;
55465;SDS011;41329;41.594;23.810;2022-08-26T11:06:25;10.15;;;4.18;;
55465;SDS011;41329;41.594;23.810;2022-08-26T11:08:54;18.70;;;4.20;;
55465;SDS011;41329;41.594;23.810;2022-08-26T11:11:43;10.90;;;4.32;;
55465;SDS011;41329;41.594;23.810;2022-08-26T11:14:29;21.95;;;4.50;;
55465;SDS011;41329;41.594;23.810;2022-08-26T11:16:56;13.45;;;3.97;;
55465;SDS011;41329;41.594;23.810;2022-08-26T11:22:08;10.97;;;3.77;;
55465;SDS011;41329;41.594;23.810;2022-08-26T11:29:58;14.85;;;4.00;;
55465;SDS011;41329;41.594;23.810;2022-08-26T11:34:59;8.25;;;3.90;;
55465;SDS011;41329;41.594;23.810;2022-08-26T11:37:31;17.45;;;4.07;;
55465;SDS011;41329;41.594;23.810;2022-08-26T11:40:00;11.40;;;3.60;;
55465;SDS011;41329;41.594;23.810;2022-08-26T11:42:42;9.68;;;3.35;;
55465;SDS011;41329;41.594;23.810;2022-08-26T11:47:41;14.32;;;4.05;;
55465;SDS011;41329;41.594;23.810;2022-08-26T11:50:08;16.15;;;5.50;;
55465;SDS011;41329;41.594;23.810;2022-08-26T11:52:56;17.38;;;5.07;;
55465;SDS011;41329;41.594;23.810;2022-08-26T11:55:26;6.13;;;3.88;;
55465;SDS011;41329;41.594;23.810;2022-08-26T11:57:53;12.52;;;4.53;;
55465;SDS011;41329;41.594;23.810;2022-08-26T12:00:22;14.82;;;3.83;;
55465;SDS011;41329;41.594;23.810;2022-08-26T12:02:50;19.10;;;4.13;;
55465;SDS011;41329;41.594;23.810;2022-08-26T12:05:28;8.10;;;3.03;;
55465;SDS011;41329;41.594;23.810;2022-08-26T12:08:04;12.45;;;3.67;;
55465;SDS011;41329;41.594;23.810;2022-08-26T12:10:32;11.93;;;4.25;;
55465;SDS011;41329;41.594;23.810;2022-08-26T12:13:00;11.93;;;4.72;;
55465;SDS011;41329;41.594;23.810;2022-08-26T12:15:27;14.02;;;4.07;;
55465;SDS011;41329;41.594;23.810;2022-08-26T12:17:54;12.90;;;4.50;;
55465;SDS011;41329;41.594;23.810;2022-08-26T12:20:28;8.73;;;3.85;;
55465;SDS011;41329;41.594;23.810;2022-08-26T12:23:18;14.82;;;4.25;;
55465;SDS011;41329;41.594;23.810;2022-08-26T12:28:55;13.80;;;4.43;;
55465;SDS011;41329;41.594;23.810;2022-08-26T12:31:36;15.68;;;3.97;;
55465;SDS011;41329;41.594;23.810;2022-08-26T12:34:05;7.80;;;4.28;;
55465;SDS011;41329;41.594;23.810;2022-08-26T12:36:34;15.10;;;4.05;;
55465;SDS011;41329;41.594;23.810;2022-08-26T12:39:07;17.40;;;5.30;;
55465;SDS011;41329;41.594;23.810;2022-08-26T12:41:47;15.18;;;4.25;;
55465;SDS011;41329;41.594;23.810;2022-08-26T12:44:31;16.05;;;5.03;;
55465;SDS011;41329;41.594;23.810;2022-08-26T12:50:26;15.15;;;4.80;;
55465;SDS011;41329;41.594;23.810;2022-08-26T12:53:20;20.35;;;5.80;;
55465;SDS011;41329;41.594;23.810;2022-08-26T12:56:03;10.23;;;4.43;;
55465;SDS011;41329;41.594;23.810;2022-08-26T12:59:04;11.48;;;4.13;;
55465;SDS011;41329;41.594;23.810;2022-08-26T13:01:39;17.30;;;3.90;;
55465;SDS011;41329;41.594;23.810;2022-08-26T13:04:56;10.23;;;4.35;;
55465;SDS011;41329;41.594;23.810;2022-08-26T13:09:41;15.23;;;4.45;;
55465;SDS011;41329;41.594;23.810;2022-08-26T13:12:07;9.15;;;3.80;;
55465;SDS011;41329;41.594;23.810;2022-08-26T13:14:32;9.50;;;4.60;;
55465;SDS011;41329;41.594;23.810;2022-08-26T13:16:58;6.50;;;3.65;;
55465;SDS011;41329;41.594;23.810;2022-08-26T13:19:24;15.95;;;4.60;;
55465;SDS011;41329;41.594;23.810;2022-08-26T13:21:53;14.07;;;7.40;;
55465;SDS011;41329;41.594;23.810;2022-08-26T13:24:23;7.22;;;5.80;;
55465;SDS011;41329;41.594;23.810;2022-08-26T13:26:52;11.20;;;6.32;;
55465;SDS011;41329;41.594;23.810;2022-08-26T13:29:18;13.68;;;4.75;;
55465;SDS011;41329;41.594;23.810;2022-08-26T13:31:44;9.60;;;4.82;;
55465;SDS011;41329;41.594;23.810;2022-08-26T13:34:12;10.75;;;4.70;;
55465;SDS011;41329;41.594;23.810;2022-08-26T13:36:39;14.68;;;3.63;;
55465;SDS011;41329;41.594;23.810;2022-08-26T13:39:09;14.32;;;4.05;;
55465;SDS011;41329;41.594;23.810;2022-08-26T13:41:35;14.48;;;4.38;;
55465;SDS011;41329;41.594;23.810;2022-08-26T13:44:00;7.45;;;4.20;;
55465;SDS011;41329;41.594;23.810;2022-08-26T13:46:26;16.77;;;4.75;;
55465;SDS011;41329;41.594;23.810;2022-08-26T13:48:53;13.73;;;5.00;;
55465;SDS011;41329;41.594;23.810;2022-08-26T13:51:19;12.30;;;4.78;;
55465;SDS011;41329;41.594;23.810;2022-08-26T13:53:47;14.80;;;4.57;;
55465;SDS011;41329;41.594;23.810;2022-08-26T13:56:13;7.55;;;4.30;;
55465;SDS011;41329;41.594;23.810;2022-08-26T13:58:39;21.60;;;4.55;;
55465;SDS011;41329;41.594;23.810;2022-08-26T14:01:05;14.88;;;4.07;;
55465;SDS011;41329;41.594;23.810;2022-08-26T14:03:31;11.10;;;3.95;;
55465;SDS011;41329;41.594;23.810;2022-08-26T14:05:56;14.20;;;4.40;;
55465;SDS011;41329;41.594;23.810;2022-08-26T14:08:22;14.77;;;4.85;;
55465;SDS011;41329;41.594;23.810;2022-08-26T14:10:47;18.02;;;4.55;;
55465;SDS011;41329;41.594;23.810;2022-08-26T14:13:13;19.92;;;4.75;;
55465;SDS011;41329;41.594;23.810;2022-08-26T14:15:40;12.05;;;4.50;;
55465;SDS011;41329;41.594;23.810;2022-08-26T14:18:06;15.52;;;4.65;;
55465;SDS011;41329;41.594;23.810;2022-08-26T14:20:35;9.20;;;4.53;;
55465;SDS011;41329;41.594;23.810;2022-08-26T14:23:01;15.98;;;4.53;;
55465;SDS011;41329;41.594;23.810;2022-08-26T14:25:27;14.30;;;4.30;;
55465;SDS011;41329;41.594;23.810;2022-08-26T14:27:54;8.63;;;4.35;;
55465;SDS011;41329;41.594;23.810;2022-08-26T14:30:23;17.58;;;4.90;;
55465;SDS011;41329;41.594;23.810;2022-08-26T14:32:50;8.52;;;4.78;;
55465;SDS011;41329;41.594;23.810;2022-08-26T14:35:19;13.30;;;3.83;;
55465;SDS011;41329;41.594;23.810;2022-08-26T14:37:49;18.60;;;4.72;;
55465;SDS011;41329;41.594;23.810;2022-08-26T14:40:16;9.00;;;4.05;;
55465;SDS011;41329;41.594;23.810;2022-08-26T14:42:43;11.95;;;3.65;;
55465;SDS011;41329;41.594;23.810;2022-08-26T14:45:11;10.18;;;4.75;;
55465;SDS011;41329;41.594;23.810;2022-08-26T14:47:42;15.68;;;4.65;;
55465;SDS011;41329;41.594;23.810;2022-08-26T14:50:08;16.35;;;3.88;;
55465;SDS011;41329;41.594;23.810;2022-08-26T14:52:34;14.02;;;4.85;;
55465;SDS011;41329;41.594;23.810;2022-08-26T14:55:19;13.90;;;5.13;;
55465;SDS011;41329;41.594;23.810;2022-08-26T14:57:45;18.23;;;5.03;;
55465;SDS011;41329;41.594;23.810;2022-08-26T15:00:10;7.25;;;5.18;;
55465;SDS011;41329;41.594;23.810;2022-08-26T15:02:36;18.27;;;5.43;;
55465;SDS011;41329;41.594;23.810;2022-08-26T15:05:02;8.88;;;4.63;;
55465;SDS011;41329;41.594;23.810;2022-08-26T15:07:28;11.57;;;4.10;;
55465;SDS011;41329;41.594;23.810;2022-08-26T15:09:54;9.13;;;4.00;;
55465;SDS011;41329;41.594;23.810;2022-08-26T15:12:19;11.90;;;4.47;;
55465;SDS011;41329;41.594;23.810;2022-08-26T15:14:45;10.10;;;3.88;;
55465;SDS011;41329;41.594;23.810;2022-08-26T15:17:11;13.85;;;4.20;;
55465;SDS011;41329;41.594;23.810;2022-08-26T15:19:37;12.95;;;5.03;;
55465;SDS011;41329;41.594;23.810;2022-08-26T15:22:03;8.15;;;4.97;;
55465;SDS011;41329;41.594;23.810;2022-08-26T15:24:28;16.77;;;4.75;;
55465;SDS011;41329;41.594;23.810;2022-08-26T15:26:54;9.00;;;3.95;;
55465;SDS011;41329;41.594;23.810;2022-08-26T15:29:19;9.75;;;4.18;;
55465;SDS011;41329;41.594;23.810;2022-08-26T15:31:47;16.70;;;3.60;;
55465;SDS011;41329;41.594;23.810;2022-08-26T15:34:13;17.30;;;5.15;;
55465;SDS011;41329;41.594;23.810;2022-08-26T15:36:39;12.40;;;4.88;;
55465;SDS011;41329;41.594;23.810;2022-08-26T15:39:06;15.43;;;4.93;;